Time;durP1;ratioP1;P1;durP2;ratioP2;P2;SDS_P1;SDS_P2;PMS_P1;PMS_P2;Temp;Humidity;BMP_temperature;BMP_pressure;BME280_temperature;BME280_humidity;BME280_pressure;Samples;Min_cycle;Max_cycle;Signal;HPM_P1;HPM_P2
2023/01/24 00:02:23;;;;;;;16.23;14.63;;;;;;;2.37;100.00;101786.53;5028724;28;20669;-73
2023/01/24 00:04:48;;;;;;;16.60;14.70;;;;;;;2.37;100.00;101791.66;5025260;28;20581;-73
2023/01/24 00:07:14;;;;;;;16.57;14.53;;;;;;;2.39;100.00;101796.84;5020415;28;20192;-74
2023/01/24 00:09:39;;;;;;;15.90;14.23;;;;;;;2.39;100.00;101797.72;5022354;28;20699;-74
2023/01/24 00:12:04;;;;;;;15.07;13.50;;;;;;;2.37;100.00;101801.88;5036129;28;20212;-72
2023/01/24 00:14:30;;;;;;;14.63;13.13;;;;;;;2.37;100.00;101834.22;5020012;28;20189;-75
2023/01/24 00:16:55;;;;;;;15.33;13.73;;;;;;;2.33;100.00;101801.66;5026610;28;20178;-74
2023/01/24 00:19:20;;;;;;;17.07;15.00;;;;;;;2.32;100.00;101790.56;5022973;28;20191;-73
2023/01/24 00:21:46;;;;;;;15.60;14.00;;;;;;;2.33;100.00;101820.44;5024945;28;20208;-74
2023/01/24 00:24:11;;;;;;;15.23;13.47;;;;;;;2.32;100.00;101800.78;5021176;28;20190;-74
2023/01/24 00:26:36;;;;;;;16.60;14.17;;;;;;;2.31;100.00;101803.25;5019735;28;20184;-75
2023/01/24 00:29:02;;;;;;;15.53;13.93;;;;;;;2.31;100.00;101782.81;5022487;28;20266;-73
2023/01/24 00:31:27;;;;;;;16.37;14.67;;;;;;;2.28;100.00;101786.09;5022909;28;20673;-74
2023/01/24 00:33:52;;;;;;;15.83;14.17;;;;;;;2.27;100.00;101803.09;5025304;28;20199;-73
2023/01/24 00:36:18;;;;;;;16.40;14.70;;;;;;;2.28;100.00;101789.50;5020198;28;20215;-76
2023/01/24 00:38:43;;;;;;;15.57;13.97;;;;;;;2.29;100.00;101798.06;5024605;28;20290;-74
2023/01/24 00:41:08;;;;;;;15.37;13.77;;;;;;;2.28;100.00;101781.00;5018176;28;20207;-73
2023/01/24 00:43:34;;;;;;;15.40;13.77;;;;;;;2.25;100.00;101789.38;5030680;28;20314;-73
2023/01/24 00:46:00;;;;;;;15.33;13.73;;;;;;;2.26;100.00;101793.69;5022524;28;20290;-74
2023/01/24 00:48:26;;;;;;;16.10;14.43;;;;;;;2.27;100.00;101792.88;5028388;28;20782;-73
2023/01/24 00:50:51;;;;;;;15.70;14.10;;;;;;;2.28;100.00;101793.75;5017651;28;20192;-74
2023/01/24 00:53:17;;;;;;;15.80;14.10;;;;;;;2.28;100.00;101796.31;5026475;28;20180;-75
2023/01/24 00:55:44;;;;;;;14.63;13.13;;;;;;;2.28;100.00;101791.22;5029358;28;20270;-73
2023/01/24 00:58:10;;;;;;;15.63;14.13;;;;;;;2.28;100.00;101784.41;5026121;28;20691;-73
2023/01/24 01:00:36;;;;;;;14.80;13.40;;;;;;;2.26;100.00;101803.91;5019013;28;20191;-74
2023/01/24 01:03:02;;;;;;;15.40;13.80;;;;;;;2.26;100.00;101793.69;5019458;28;20208;-74
2023/01/24 01:05:28;;;;;;;15.03;13.47;;;;;;;2.26;100.00;101791.16;5024585;28;20184;-73
2023/01/24 01:07:53;;;;;;;14.73;13.23;;;;;;;2.23;100.00;101792.66;5027270;28;20713;-73
2023/01/24 01:10:18;;;;;;;14.30;12.87;;;;;;;2.23;100.00;101795.19;5028610;28;20187;-76
2023/01/24 01:12:44;;;;;;;15.30;13.23;;;;;;;2.22;100.00;101807.13;5024841;28;21106;-74
2023/01/24 01:15:10;;;;;;;14.53;13.03;;;;;;;2.22;100.00;101806.22;5008741;28;20192;-73
2023/01/24 01:17:35;;;;;;;14.70;13.27;;;;;;;2.22;100.00;101796.91;5029101;28;20211;-73
2023/01/24 01:20:00;;;;;;;14.60;12.97;;;;;;;2.22;100.00;101796.00;5023342;28;20959;-73
2023/01/24 01:22:26;;;;;;;14.33;12.83;;;;;;;2.22;100.00;101813.88;5017130;28;20208;-73
2023/01/24 01:24:51;;;;;;;13.77;12.33;;;;;;;2.21;100.00;101814.69;5032767;28;20193;-73
2023/01/24 01:27:16;;;;;;;14.53;13.13;;;;;;;2.22;100.00;101809.66;5019627;28;20276;-75
2023/01/24 01:29:42;;;;;;;13.90;12.40;;;;;;;2.22;100.00;101813.88;5032327;28;20186;-76
2023/01/24 01:32:07;;;;;;;13.40;12.10;;;;;;;2.21;100.00;101804.47;5044852;28;20239;-75
2023/01/24 01:34:32;;;;;;;14.10;12.70;;;;;;;2.19;100.00;101808.66;5046156;28;20187;-74
2023/01/24 01:36:58;;;;;;;14.03;12.57;;;;;;;2.20;100.00;101823.16;5024527;28;20194;-74
2023/01/24 01:39:23;;;;;;;14.67;13.20;;;;;;;2.20;100.00;101834.25;5018388;28;20254;-76
2023/01/24 01:41:48;;;;;;;14.97;13.43;;;;;;;2.22;100.00;101806.22;5009907;28;20207;-73
2023/01/24 01:44:40;;;;;;;14.57;13.07;;;;;;;2.21;100.00;101813.03;5010886;28;20330;-74
2023/01/24 01:47:18;;;;;;;14.40;12.90;;;;;;;2.22;100.00;101812.22;5014406;28;20246;-74
2023/01/24 01:50:23;;;;;;;14.67;13.03;;;;;;;2.23;100.00;101830.97;5021454;28;20180;-74
2023/01/24 01:52:49;;;;;;;13.87;12.37;;;;;;;2.20;100.00;101821.47;5009989;28;20214;-73
2023/01/24 01:55:19;;;;;;;14.10;12.70;;;;;;;2.22;100.00;101821.53;5018888;28;20185;-74
2023/01/24 01:57:46;;;;;;;14.20;12.70;;;;;;;2.22;100.00;101816.44;5021231;28;20196;-75
2023/01/24 02:00:18;;;;;;;13.70;12.33;;;;;;;2.18;100.00;101823.06;5026758;28;20184;-73
2023/01/24 02:02:48;;;;;;;13.67;12.30;;;;;;;2.18;100.00;101805.19;5025716;28;20209;-73
2023/01/24 02:05:16;;;;;;;14.83;13.33;;;;;;;2.19;100.00;101826.53;5028470;28;20179;-72
2023/01/24 02:07:57;;;;;;;14.70;13.20;;;;;;;2.19;100.00;101829.94;5012497;28;20548;-73
2023/01/24 02:10:24;;;;;;;14.57;13.07;;;;;;;2.16;100.00;101832.34;5023535;28;20191;-74
2023/01/24 02:12:53;;;;;;;14.83;13.23;;;;;;;2.19;100.00;101826.53;5022340;28;20199;-73
2023/01/24 02:18:07;;;;;;;14.27;12.80;;;;;;;2.24;100.00;101836.16;5020864;28;20671;-72
2023/01/24 02:20:45;;;;;;;14.40;12.93;;;;;;;2.25;100.00;101837.03;5021082;28;20242;-74
2023/01/24 02:23:32;;;;;;;14.27;12.77;;;;;;;2.25;100.00;101842.16;5018272;28;20184;-73
2023/01/24 02:26:27;;;;;;;14.27;12.83;;;;;;;2.21;100.00;101838.56;5014873;28;20183;-74
2023/01/24 02:29:05;;;;;;;15.03;13.53;;;;;;;2.20;100.00;101844.47;5021319;28;20200;-73
2023/01/24 02:31:53;;;;;;;13.00;11.70;;;;;;;2.20;100.00;101853.78;5020812;28;20211;-73
2023/01/24 02:34:18;;;;;;;13.77;12.40;;;;;;;2.16;100.00;101862.13;5027300;28;20187;-73
2023/01/24 02:36:44;;;;;;;14.37;12.97;;;;;;;2.18;100.00;101847.75;5030889;28;20182;-73
2023/01/24 02:39:16;;;;;;;14.77;13.27;;;;;;;2.19;100.00;101846.97;5028911;28;20220;-73
2023/01/24 02:41:52;;;;;;;14.70;13.20;;;;;;;2.19;100.00;101842.72;5018024;28;20273;-74
2023/01/24 02:45:03;;;;;;;14.97;13.47;;;;;;;2.19;100.00;101842.72;5018704;28;20250;-73
2023/01/24 02:47:32;;;;;;;13.40;12.00;;;;;;;2.18;100.00;101846.06;5025172;28;20204;-73
2023/01/24 02:50:02;;;;;;;14.07;12.67;;;;;;;2.19;100.00;101844.41;5023272;28;20187;-75
2023/01/24 02:55:11;;;;;;;14.37;12.97;;;;;;;2.19;100.00;101845.28;5014202;28;21587;-74
2023/01/24 03:00:21;;;;;;;13.50;12.13;;;;;;;2.18;100.00;101847.75;5017759;28;20191;-75
2023/01/24 03:02:46;;;;;;;14.87;13.47;;;;;;;2.18;100.00;101856.28;5023684;28;20207;-75
2023/01/24 03:05:11;;;;;;;14.20;12.80;;;;;;;2.18;100.00;101860.53;5026721;28;20241;-74
2023/01/24 03:07:44;;;;;;;14.90;13.43;;;;;;;2.18;100.00;101851.19;5024761;28;20279;-74
2023/01/24 03:10:15;;;;;;;17.23;14.50;;;;;;;2.18;100.00;101848.63;5021003;28;20180;-73
2023/01/24 03:34:32;;;;;;;15.43;13.37;;;;;;;2.17;100.00;101844.31;5019800;28;20274;-73
2023/01/24 03:37:01;;;;;;;15.77;14.13;;;;;;;2.17;100.00;101849.41;5025367;28;20261;-73
2023/01/24 03:42:10;;;;;;;16.23;14.53;;;;;;;2.21;100.00;101851.34;5062680;28;20221;-73
2023/01/24 03:44:36;;;;;;;16.23;14.53;;;;;;;2.20;100.00;101852.13;5056205;28;20179;-73
2023/01/24 03:47:01;;;;;;;15.63;14.03;;;;;;;2.20;100.00;101852.13;5021740;28;20711;-74
2023/01/24 03:52:28;;;;;;;15.80;14.20;;;;;;;2.22;100.00;101847.09;5015765;28;20211;-72
2023/01/24 03:54:55;;;;;;;17.73;15.93;;;;;;;2.20;100.00;101862.34;5016438;28;20266;-73
2023/01/24 03:57:22;;;;;;;16.17;14.47;;;;;;;2.18;100.00;101853.72;5012551;28;20212;-73
2023/01/24 03:59:47;;;;;;;16.07;14.37;;;;;;;2.21;100.00;101865.78;5021635;28;20600;-75
2023/01/24 04:02:13;;;;;;;17.63;14.70;;;;;;;2.18;100.00;101846.06;5014380;28;20224;-75
2023/01/24 04:07:22;;;;;;;15.47;13.80;;;;;;;2.19;100.00;101850.38;5018169;28;20197;-73
2023/01/24 04:09:47;;;;;;;16.93;15.23;;;;;;;2.19;100.00;101852.94;5013191;28;20180;-73
2023/01/24 04:12:12;;;;;;;16.93;15.00;;;;;;;2.18;100.00;101840.97;5015667;28;20203;-75
2023/01/24 04:14:38;;;;;;;17.47;15.67;;;;;;;2.18;100.00;101848.63;5027018;28;20179;-75
2023/01/24 04:17:03;;;;;;;16.03;14.43;;;;;;;2.19;100.00;101849.50;5019007;28;20243;-73
2023/01/24 04:19:29;;;;;;;16.47;14.77;;;;;;;2.20;100.00;101852.13;5018607;28;20185;-73
2023/01/24 04:21:57;;;;;;;17.90;16.00;;;;;;;2.20;100.00;101836.81;5022326;28;20257;-75
2023/01/24 04:24:22;;;;;;;16.50;14.80;;;;;;;2.21;100.00;101847.88;5019207;28;20659;-74
2023/01/24 04:26:47;;;;;;;17.17;15.10;;;;;;;2.19;100.00;101849.50;5008576;28;20266;-73
2023/01/24 04:29:13;;;;;;;16.17;14.47;;;;;;;2.16;100.00;101863.00;5019776;28;20184;-74
2023/01/24 04:31:38;;;;;;;17.17;15.20;;;;;;;2.16;100.00;101855.31;5017903;28;20570;-73
2023/01/24 04:34:03;;;;;;;18.00;16.10;;;;;;;2.17;100.00;101858.78;5025716;28;20217;-74
2023/01/24 04:36:29;;;;;;;17.27;15.03;;;;;;;2.15;100.00;101848.47;5015764;28;20259;-73
2023/01/24 04:38:55;;;;;;;16.33;14.63;;;;;;;2.15;100.00;101861.22;5023897;28;20312;-73
2023/01/24 04:41:20;;;;;;;17.00;15.20;;;;;;;2.13;100.00;101848.41;5018321;28;20199;-73
2023/01/24 04:43:45;;;;;;;17.27;15.40;;;;;;;2.14;100.00;101856.91;5028183;28;20186;-73
2023/01/24 04:46:11;;;;;;;18.17;16.23;;;;;;;2.13;100.00;101848.41;5019491;28;20176;-76
2023/01/24 04:48:36;;;;;;;18.03;16.13;;;;;;;2.13;100.00;101853.50;5024905;28;20669;-75
2023/01/24 04:51:02;;;;;;;18.80;16.80;;;;;;;2.14;100.00;101862.03;5019222;28;20183;-73
2023/01/24 04:53:29;;;;;;;17.13;15.33;;;;;;;2.12;100.00;101859.41;5026697;28;20203;-74
2023/01/24 04:55:58;;;;;;;17.23;15.43;;;;;;;2.12;100.00;101858.50;5020507;28;20172;-73
2023/01/24 04:58:24;;;;;;;18.37;16.27;;;;;;;2.16;100.00;101880.00;5011370;28;20303;-73
2023/01/24 05:00:49;;;;;;;20.30;15.20;;;;;;;2.12;100.00;101867.06;5012806;28;20283;-75
2023/01/24 05:03:14;;;;;;;18.53;15.67;;;;;;;2.10;100.00;101863.56;5014999;28;20648;-73
2023/01/24 05:05:40;;;;;;;17.87;15.77;;;;;;;2.11;100.00;101867.00;5016471;28;20188;-74
2023/01/24 05:08:05;;;;;;;18.33;15.37;;;;;;;2.12;100.00;101864.50;5013958;28;20604;-74
2023/01/24 05:10:30;;;;;;;18.33;15.87;;;;;;;2.12;100.00;101876.38;5013764;28;20184;-73
2023/01/24 05:12:56;;;;;;;17.53;15.63;;;;;;;2.11;100.00;101878.09;5017043;28;20210;-74
2023/01/24 05:15:22;;;;;;;18.20;15.47;;;;;;;2.11;100.00;101867.88;5017833;28;20283;-73
2023/01/24 05:17:48;;;;;;;18.40;15.10;;;;;;;2.14;100.00;101874.78;5018940;28;20203;-74
2023/01/24 05:20:13;;;;;;;19.27;16.20;;;;;;;2.13;100.00;101878.16;5016776;28;20172;-73
2023/01/24 05:22:39;;;;;;;16.10;14.40;;;;;;;2.12;100.00;101882.41;5016882;28;20233;-73
2023/01/24 05:25:04;;;;;;;17.33;15.50;;;;;;;2.12;100.00;101881.50;5017582;28;20206;-76
2023/01/24 05:27:30;;;;;;;18.43;15.93;;;;;;;2.12;100.00;101890.06;5010950;28;20636;-74
2023/01/24 05:29:55;;;;;;;18.37;15.10;;;;;;;2.11;100.00;101880.63;5016432;28;20192;-74
2023/01/24 05:32:20;;;;;;;16.97;14.90;;;;;;;2.10;100.00;101889.09;5014250;28;20223;-73
2023/01/24 05:34:45;;;;;;;17.33;15.33;;;;;;;2.12;100.00;101877.28;5018995;28;20566;-74
2023/01/24 05:37:11;;;;;;;19.43;16.00;;;;;;;2.12;100.00;101892.59;5018702;28;20237;-76
2023/01/24 05:39:36;;;;;;;17.87;15.40;;;;;;;2.15;100.00;101886.78;5021509;28;20206;-76
2023/01/24 05:42:01;;;;;;;17.47;15.63;;;;;;;2.15;100.00;101893.56;5010754;28;20273;-74
2023/01/24 05:44:27;;;;;;;17.67;15.83;;;;;;;2.12;100.00;101887.50;5011871;28;20652;-74
2023/01/24 05:46:52;;;;;;;18.87;15.87;;;;;;;2.16;100.00;101900.44;5009921;28;20243;-73
2023/01/24 05:49:17;;;;;;;17.93;16.03;;;;;;;2.13;100.00;101902.03;5015103;28;20175;-73
2023/01/24 05:51:43;;;;;;;17.67;15.77;;;;;;;2.13;100.00;101893.47;5034376;28;20793;-76
2023/01/24 05:54:08;;;;;;;17.07;15.20;;;;;;;2.12;100.00;101892.59;5056205;28;20220;-76
2023/01/24 05:56:33;;;;;;;17.97;15.87;;;;;;;2.13;100.00;101894.38;5026839;28;20196;-72
2023/01/24 05:59:01;;;;;;;18.03;15.93;;;;;;;2.15;100.00;101899.53;5011052;28;20209;-74
2023/01/24 06:01:26;;;;;;;18.50;16.27;;;;;;;2.16;100.00;101908.97;5013375;28;20203;-74
2023/01/24 06:03:53;;;;;;;17.70;15.90;;;;;;;2.15;100.00;101906.34;5023030;28;20188;-73
2023/01/24 06:06:21;;;;;;;17.27;15.40;;;;;;;2.12;100.00;101915.59;5026739;28;20172;-73
2023/01/24 06:08:47;;;;;;;17.63;15.63;;;;;;;2.15;100.00;101926.78;5022120;28;20191;-74
2023/01/24 06:11:21;;;;;;;17.30;15.37;;;;;;;2.14;100.00;101915.66;5032924;28;20204;-73
2023/01/24 06:13:47;;;;;;;18.03;16.13;;;;;;;2.15;100.00;101919.97;5020739;28;20198;-74
2023/01/24 06:16:16;;;;;;;17.40;14.93;;;;;;;2.12;100.00;101925.81;5022737;28;20195;-73
2023/01/24 06:18:41;;;;;;;17.30;15.07;;;;;;;2.14;100.00;101925.88;5023624;28;20229;-74
2023/01/24 06:21:22;;;;;;;16.93;15.03;;;;;;;2.14;100.00;101933.53;5017254;28;20635;-72
2023/01/24 06:23:47;;;;;;;19.33;15.87;;;;;;;2.15;100.00;101942.97;5014614;28;20187;-73
2023/01/24 06:26:13;;;;;;;20.33;16.80;;;;;;;2.15;100.00;101935.31;5021318;28;20608;-73
2023/01/24 06:28:39;;;;;;;18.47;15.13;;;;;;;2.17;100.00;101955.84;5013748;28;20184;-74
2023/01/24 06:31:46;;;;;;;17.77;15.43;;;;;;;2.16;100.00;101946.41;5018272;28;20184;-74
2023/01/24 06:34:31;;;;;;;17.47;15.23;;;;;;;2.13;100.00;101953.13;5026495;28;20221;-74
2023/01/24 06:37:25;;;;;;;17.50;15.20;;;;;;;2.14;100.00;101948.88;5015887;28;20235;-75
2023/01/24 06:39:52;;;;;;;18.50;15.87;;;;;;;2.13;100.00;101952.22;5017394;28;20220;-75
2023/01/24 06:42:22;;;;;;;19.07;16.10;;;;;;;2.12;100.00;101946.25;5029372;28;20300;-74
2023/01/24 06:44:47;;;;;;;19.60;16.27;;;;;;;2.12;100.00;101953.91;5018769;28;20180;-74
2023/01/24 06:47:13;;;;;;;18.57;15.80;;;;;;;2.13;100.00;101950.56;5018657;28;20184;-74
2023/01/24 06:49:39;;;;;;;17.40;15.40;;;;;;;2.12;100.00;101955.56;5015591;28;20233;-75
2023/01/24 06:52:05;;;;;;;18.07;16.03;;;;;;;2.13;100.00;101950.56;5012621;28;20203;-74
2023/01/24 06:54:32;;;;;;;18.10;16.30;;;;;;;2.13;100.00;101957.31;5020058;28;20188;-74
2023/01/24 06:56:57;;;;;;;20.47;16.87;;;;;;;2.11;100.00;101957.25;5028599;28;20741;-74
2023/01/24 06:59:22;;;;;;;15.83;14.23;;;;;;;2.11;100.00;101974.28;5029500;28;20210;-75
2023/01/24 07:01:49;;;;;;;17.67;15.77;;;;;;;2.10;100.00;101968.28;5018837;28;20200;-74
2023/01/24 07:04:14;;;;;;;17.30;15.43;;;;;;;2.12;100.00;101965.78;5027391;28;20209;-74
2023/01/24 07:06:39;;;;;;;18.50;16.60;;;;;;;2.12;100.00;101968.34;5023001;28;20191;-74
2023/01/24 07:09:05;;;;;;;18.77;16.33;;;;;;;2.12;100.00;101968.34;5013030;28;20204;-75
2023/01/24 07:11:30;;;;;;;19.60;16.03;;;;;;;2.13;100.00;101977.75;5016852;28;20246;-74
2023/01/24 07:13:56;;;;;;;18.90;16.87;;;;;;;2.15;100.00;101990.63;5024165;28;20539;-73
2023/01/24 07:16:21;;;;;;;17.70;15.73;;;;;;;2.12;100.00;101974.34;5034215;28;20678;-73
2023/01/24 07:18:47;;;;;;;20.77;17.20;;;;;;;2.13;100.00;101986.31;5031377;28;20210;-73
2023/01/24 07:21:12;;;;;;;19.53;17.20;;;;;;;2.10;100.00;101985.28;5022437;28;20255;-73
2023/01/24 07:23:43;;;;;;;17.00;15.30;;;;;;;2.12;100.00;101991.31;5034116;28;20227;-73
2023/01/24 07:26:11;;;;;;;18.60;16.57;;;;;;;2.12;100.00;101989.66;5030237;28;20194;-73
2023/01/24 07:28:36;;;;;;;20.93;17.50;;;;;;;2.11;100.00;101982.78;5020746;28;20217;-73
2023/01/24 07:31:02;;;;;;;18.77;16.77;;;;;;;2.13;100.00;101983.75;5028258;28;20196;-74
2023/01/24 07:33:28;;;;;;;18.93;16.43;;;;;;;2.14;100.00;101987.19;5024793;28;20211;-73
2023/01/24 07:35:53;;;;;;;18.20;16.27;;;;;;;2.15;100.00;101981.28;5023221;28;20175;-73
2023/01/24 07:38:19;;;;;;;18.13;16.20;;;;;;;2.15;100.00;101993.19;5029672;28;20836;-73
2023/01/24 07:40:44;;;;;;;19.20;16.10;;;;;;;2.13;100.00;101999.09;5029063;28;20673;-73
2023/01/24 07:43:09;;;;;;;18.00;16.03;;;;;;;2.11;100.00;101997.25;5031132;28;20729;-74
2023/01/24 07:45:37;;;;;;;18.27;15.93;;;;;;;2.13;100.00;101993.09;5036639;28;20176;-74
2023/01/24 07:48:04;;;;;;;17.63;15.73;;;;;;;2.12;100.00;101989.66;5028748;28;20274;-72
2023/01/24 07:50:30;;;;;;;20.60;16.83;;;;;;;2.13;100.00;102001.63;5024620;28;20187;-74
2023/01/24 07:52:55;;;;;;;19.17;17.07;;;;;;;2.13;100.00;101996.53;5024070;28;20280;-73
2023/01/24 07:55:22;;;;;;;17.77;15.87;;;;;;;2.16;100.00;102011.13;5024347;28;20218;-76
2023/01/24 07:57:47;;;;;;;19.50;15.83;;;;;;;2.19;100.00;102006.19;5031179;28;20285;-73
2023/01/24 08:00:14;;;;;;;18.03;15.97;;;;;;;2.17;100.00;102005.22;5025787;28;20605;-74
2023/01/24 08:02:40;;;;;;;20.20;17.40;;;;;;;2.18;100.00;102013.78;5010905;28;20214;-73
2023/01/24 08:05:06;;;;;;;17.50;15.60;;;;;;;2.17;100.00;102012.91;5034279;28;20184;-74
2023/01/24 08:07:32;;;;;;;17.73;15.90;;;;;;;2.19;100.00;102013.00;5055440;28;20263;-75
2023/01/24 08:09:57;;;;;;;18.77;16.33;;;;;;;2.20;100.00;102019.84;5040475;28;20188;-72
2023/01/24 08:12:22;;;;;;;19.00;16.23;;;;;;;2.21;100.00;102014.81;5030796;28;20195;-74
2023/01/24 08:14:48;;;;;;;19.40;16.63;;;;;;;2.22;100.00;102018.25;5028407;28;20696;-73
2023/01/24 08:17:13;;;;;;;16.83;15.07;;;;;;;2.24;100.00;102026.88;5034708;28;20186;-73
2023/01/24 08:19:39;;;;;;;18.57;16.57;;;;;;;2.25;100.00;102033.75;5045942;28;20649;-72
2023/01/24 08:22:05;;;;;;;18.20;15.70;;;;;;;2.22;100.00;102034.47;5024740;28;20206;-74
2023/01/24 08:24:31;;;;;;;19.13;16.43;;;;;;;2.23;100.00;102032.78;5029099;28;20429;-74
2023/01/24 08:26:56;;;;;;;20.73;17.73;;;;;;;2.25;100.00;102026.06;5026750;28;20189;-73
2023/01/24 08:29:22;;;;;;;19.60;17.10;;;;;;;2.27;100.00;102024.47;5011200;28;20195;-74
2023/01/24 08:31:48;;;;;;;18.63;15.40;;;;;;;2.27;100.00;102044.91;5010840;28;20212;-74
2023/01/24 08:34:14;;;;;;;18.60;16.13;;;;;;;2.26;100.00;102022.72;5019519;28;20184;-74
2023/01/24 08:36:39;;;;;;;19.63;17.53;;;;;;;2.28;100.00;102033.91;5031274;28;20617;-73
2023/01/24 08:39:04;;;;;;;18.80;16.80;;;;;;;2.29;100.00;102035.66;5030521;28;20671;-72
2023/01/24 08:41:30;;;;;;;18.53;16.53;;;;;;;2.27;100.00;102030.47;5030231;28;20192;-74
2023/01/24 08:43:55;;;;;;;18.17;16.30;;;;;;;2.29;100.00;102033.13;5024239;28;20179;-74
2023/01/24 08:46:21;;;;;;;19.07;16.03;;;;;;;2.30;100.00;102045.09;5011059;28;20184;-74
2023/01/24 08:48:46;;;;;;;19.03;16.83;;;;;;;2.29;100.00;102068.88;5013430;28;20180;-73
2023/01/24 08:51:11;;;;;;;20.33;17.00;;;;;;;2.30;100.00;102037.44;5029457;28;20199;-74
2023/01/24 08:53:37;;;;;;;19.17;16.20;;;;;;;2.28;100.00;102050.09;5033292;28;20262;-74
2023/01/24 08:56:03;;;;;;;19.03;17.00;;;;;;;2.31;100.00;102064.75;5035235;28;20199;-74
2023/01/24 08:58:29;;;;;;;18.63;16.13;;;;;;;2.34;100.00;102059.81;5037100;28;20238;-74
2023/01/24 09:00:54;;;;;;;17.93;15.93;;;;;;;2.34;100.00;102084.44;5033350;28;20266;-74
2023/01/24 09:03:19;;;;;;;18.73;16.80;;;;;;;2.35;100.00;102056.41;5027120;28;20195;-73
2023/01/24 09:05:45;;;;;;;18.60;16.53;;;;;;;2.38;100.00;102074.47;5026023;28;20191;-74
2023/01/24 09:08:11;;;;;;;18.87;16.87;;;;;;;2.38;100.00;102071.91;5026128;28;20263;-73
2023/01/24 09:10:37;;;;;;;18.27;16.27;;;;;;;2.39;100.00;102075.38;5022865;28;20628;-73
2023/01/24 09:13:03;;;;;;;20.17;17.53;;;;;;;2.41;100.00;102073.78;5032792;28;20229;-75
2023/01/24 09:15:29;;;;;;;18.97;16.67;;;;;;;2.41;100.00;102069.53;5027998;28;20274;-73
2023/01/24 09:17:55;;;;;;;18.63;15.63;;;;;;;2.42;100.00;102067.88;5035627;28;20332;-73
2023/01/24 09:20:20;;;;;;;17.80;15.43;;;;;;;2.42;100.00;102058.50;5024359;28;20188;-74
2023/01/24 09:22:46;;;;;;;18.87;15.40;;;;;;;2.44;100.00;102061.13;5029421;28;20210;-77
2023/01/24 09:25:11;;;;;;;19.37;16.23;;;;;;;2.48;100.00;102062.19;5028506;28;20188;-72
2023/01/24 09:27:37;;;;;;;18.50;16.50;;;;;;;2.48;100.00;102075.84;5037955;28;20186;-75
2023/01/24 09:30:04;;;;;;;17.73;15.83;;;;;;;2.50;100.00;102069.16;5034371;28;20206;-73
2023/01/24 09:32:30;;;;;;;17.53;15.40;;;;;;;2.50;100.00;102075.91;5028969;28;20216;-73
2023/01/24 09:34:55;;;;;;;18.17;15.87;;;;;;;2.49;100.00;102081.84;5044065;28;20236;-74
2023/01/24 09:37:22;;;;;;;20.47;16.87;;;;;;;2.50;100.00;102069.16;5040915;28;20191;-74
2023/01/24 09:39:47;;;;;;;17.70;15.73;;;;;;;2.52;100.00;102075.22;5032384;28;20190;-73
2023/01/24 09:42:23;;;;;;;19.80;16.60;;;;;;;2.52;100.00;102080.34;5029498;28;20208;-73
2023/01/24 09:45:07;;;;;;;18.03;16.13;;;;;;;2.54;100.00;102072.72;5024266;28;20189;-73
2023/01/24 09:47:53;;;;;;;18.30;16.40;;;;;;;2.55;100.00;102082.16;5026752;28;20191;-74
2023/01/24 09:50:37;;;;;;;17.43;15.63;;;;;;;2.55;100.00;102093.28;5025101;28;20183;-72
2023/01/24 09:53:03;;;;;;;19.37;16.83;;;;;;;2.56;100.00;102099.25;5034206;28;20236;-73
2023/01/24 09:55:29;;;;;;;18.40;15.53;;;;;;;2.56;100.00;102097.59;5031120;28;20251;-73
2023/01/24 09:57:57;;;;;;;17.23;15.43;;;;;;;2.61;100.00;102102.06;5034073;28;20693;-74
2023/01/24 10:00:36;;;;;;;18.23;15.90;;;;;;;2.62;100.00;102086.81;5028381;28;20206;-74
2023/01/24 10:03:02;;;;;;;19.63;16.73;;;;;;;2.64;100.00;102094.53;5023857;28;20636;-73
2023/01/24 10:05:41;;;;;;;18.57;16.67;;;;;;;2.63;100.00;102078.34;5026651;28;20254;-73
2023/01/24 10:08:34;;;;;;;18.50;16.47;;;;;;;2.64;100.00;102092.88;5034206;28;20202;-73
2023/01/24 10:11:17;;;;;;;18.23;16.37;;;;;;;2.63;100.00;102082.56;5029875;28;20213;-73
2023/01/24 10:14:22;;;;;;;17.77;15.87;;;;;;;2.63;100.00;102086.00;5040299;28;20190;-74
2023/01/24 10:17:13;;;;;;;17.70;15.37;;;;;;;2.67;100.00;102087.91;5025704;28;20258;-73
2023/01/24 10:20:01;;;;;;;17.80;15.90;;;;;;;2.69;100.00;102078.66;5059056;28;20183;-74
2023/01/24 10:22:56;;;;;;;16.70;14.57;;;;;;;2.66;100.00;102075.06;5050231;28;20207;-74
2023/01/24 10:26:03;;;;;;;18.47;16.33;;;;;;;2.69;100.00;102072.66;5010587;28;20196;-72
2023/01/24 10:28:38;;;;;;;16.40;14.70;;;;;;;2.71;100.00;102064.28;5043532;28;20229;-72
2023/01/24 10:31:30;;;;;;;18.03;16.10;;;;;;;2.72;100.00;102065.16;5025346;28;20722;-74
2023/01/24 10:34:00;;;;;;;17.73;15.77;;;;;;;2.70;100.00;102069.31;5019086;28;20181;-72
2023/01/24 10:36:44;;;;;;;17.93;16.03;;;;;;;2.75;100.00;102075.53;5023959;28;20241;-74
2023/01/24 10:39:10;;;;;;;18.77;16.33;;;;;;;2.76;100.00;102063.63;5028699;28;20212;-73
2023/01/24 10:41:36;;;;;;;17.30;15.57;;;;;;;2.74;100.00;102071.22;5021997;28;20211;-75
2023/01/24 10:44:19;;;;;;;17.83;15.93;;;;;;;2.77;100.00;102063.72;5013878;28;20195;-74
2023/01/24 10:47:21;;;;;;;17.57;15.37;;;;;;;2.80;100.00;102068.13;5031757;28;20191;-73
2023/01/24 10:50:01;;;;;;;17.13;15.33;;;;;;;2.80;100.00;102070.69;5021465;28;20815;-74
2023/01/24 10:52:27;;;;;;;17.60;15.63;;;;;;;2.83;100.00;102060.59;5026038;28;20641;-74
2023/01/24 10:54:57;;;;;;;17.83;15.93;;;;;;;2.88;100.00;102062.56;5019203;28;20274;-74
2023/01/24 10:57:36;;;;;;;16.90;15.10;;;;;;;2.89;100.00;102060.91;5045966;28;20557;-73
2023/01/24 11:00:17;;;;;;;17.07;15.37;;;;;;;2.95;100.00;102062.91;5024705;28;20270;-73
2023/01/24 11:02:47;;;;;;;17.13;15.40;;;;;;;2.96;100.00;102059.53;5025503;28;20930;-73
2023/01/24 11:05:13;;;;;;;17.33;15.50;;;;;;;3.00;100.00;102064.03;5022296;28;20245;-73
2023/01/24 11:07:51;;;;;;;16.83;15.03;;;;;;;3.06;100.00;102064.31;5028610;28;20279;-73
2023/01/24 11:10:22;;;;;;;17.07;15.27;;;;;;;3.06;100.00;102056.63;5021375;28;20205;-76
2023/01/24 11:13:32;;;;;;;16.77;15.00;;;;;;;3.02;100.00;102060.72;5019744;28;21866;-74
2023/01/24 11:16:05;;;;;;;17.87;15.97;;;;;;;3.09;100.00;102061.06;5001189;28;20211;-72
2023/01/24 11:18:31;;;;;;;18.87;15.43;;;;;;;3.11;100.00;102077.31;5017250;28;20214;-73
2023/01/24 11:21:13;;;;;;;17.40;15.10;;;;;;;3.09;100.00;102059.34;5016415;28;20714;-73
2023/01/24 11:23:39;;;;;;;16.87;15.07;;;;;;;3.09;100.00;102058.50;5011530;28;20182;-72
2023/01/24 11:26:18;;;;;;;17.00;15.23;;;;;;;3.11;100.00;102055.19;5014753;28;20202;-73
2023/01/24 11:28:43;;;;;;;16.93;15.13;;;;;;;3.15;100.00;102049.44;5010600;28;20656;-74
2023/01/24 11:31:22;;;;;;;16.07;14.43;;;;;;;3.17;100.00;102055.53;4979069;28;1087503;-73
2023/01/24 11:33:50;;;;;;;15.93;14.10;;;;;;;3.16;100.00;102056.31;5024162;28;20244;-73
2023/01/24 11:36:34;;;;;;;16.20;14.37;;;;;;;3.17;100.00;102057.19;5021218;28;20247;-73
2023/01/24 11:39:10;;;;;;;16.33;14.63;;;;;;;3.13;100.00;102056.16;5012917;28;20338;-75
2023/01/24 11:41:45;;;;;;;15.57;13.97;;;;;;;3.19;100.00;102050.47;5019340;28;20206;-74
2023/01/24 11:44:29;;;;;;;15.70;14.00;;;;;;;3.17;100.00;102046.94;5034904;28;20185;-73
2023/01/24 11:47:13;;;;;;;16.07;14.37;;;;;;;3.20;100.00;102045.41;5011494;28;20893;-73
2023/01/24 11:50:17;;;;;;;15.63;14.03;;;;;;;3.21;100.00;102036.06;5023367;28;20191;-74
2023/01/24 11:53:04;;;;;;;15.67;13.97;;;;;;;3.26;100.00;102044.84;5026543;28;20209;-77
2023/01/24 11:55:56;;;;;;;15.03;13.43;;;;;;;3.26;100.00;102046.53;5019576;28;20219;-76
2023/01/24 11:58:41;;;;;;;16.40;14.67;;;;;;;3.23;100.00;102039.59;5007315;28;20238;-76
2023/01/24 12:01:29;;;;;;;15.70;14.00;;;;;;;3.21;100.00;102033.53;5016023;28;20192;-73